sensor_id;sensor_type;location;lat;lon;timestamp;P1;durP1;ratioP1;P2;durP2;ratioP2
49131;SDS011;35149;51.196;6.204;2023-03-31T00:00:54;2.90;;;1.00;;
49131;SDS011;35149;51.196;6.204;2023-03-31T00:03:23;2.63;;;0.93;;
49131;SDS011;35149;51.196;6.204;2023-03-31T00:05:54;2.70;;;0.75;;
49131;SDS011;35149;51.196;6.204;2023-03-31T00:08:23;3.53;;;0.95;;
49131;SDS011;35149;51.196;6.204;2023-03-31T00:10:59;2.22;;;0.90;;
49131;SDS011;35149;51.196;6.204;2023-03-31T00:13:26;4.35;;;0.77;;
49131;SDS011;35149;51.196;6.204;2023-03-31T00:16:03;1.65;;;1.10;;
49131;SDS011;35149;51.196;6.204;2023-03-31T00:18:32;2.53;;;1.45;;
49131;SDS011;35149;51.196;6.204;2023-03-31T00:21:10;4.90;;;1.20;;
49131;SDS011;35149;51.196;6.204;2023-03-31T00:23:39;3.60;;;1.15;;
49131;SDS011;35149;51.196;6.204;2023-03-31T00:26:08;4.75;;;1.42;;
49131;SDS011;35149;51.196;6.204;2023-03-31T00:28:37;3.15;;;1.17;;
49131;SDS011;35149;51.196;6.204;2023-03-31T00:31:04;3.67;;;1.45;;
49131;SDS011;35149;51.196;6.204;2023-03-31T00:33:30;4.35;;;1.40;;
49131;SDS011;35149;51.196;6.204;2023-03-31T00:35:57;3.75;;;1.25;;
49131;SDS011;35149;51.196;6.204;2023-03-31T00:38:27;3.42;;;1.10;;
49131;SDS011;35149;51.196;6.204;2023-03-31T00:41:03;1.80;;;0.70;;
49131;SDS011;35149;51.196;6.204;2023-03-31T00:43:35;2.33;;;1.08;;
49131;SDS011;35149;51.196;6.204;2023-03-31T00:48:51;1.60;;;1.20;;
49131;SDS011;35149;51.196;6.204;2023-03-31T00:51:23;3.53;;;1.30;;
49131;SDS011;35149;51.196;6.204;2023-03-31T00:53:59;5.18;;;1.38;;
49131;SDS011;35149;51.196;6.204;2023-03-31T00:56:33;4.47;;;1.23;;
49131;SDS011;35149;51.196;6.204;2023-03-31T00:59:03;3.15;;;1.30;;
49131;SDS011;35149;51.196;6.204;2023-03-31T01:01:33;6.28;;;1.20;;
49131;SDS011;35149;51.196;6.204;2023-03-31T01:04:02;2.90;;;1.00;;
49131;SDS011;35149;51.196;6.204;2023-03-31T01:06:30;1.75;;;0.98;;
49131;SDS011;35149;51.196;6.204;2023-03-31T01:09:00;2.47;;;1.25;;
49131;SDS011;35149;51.196;6.204;2023-03-31T01:11:31;2.28;;;0.80;;
49131;SDS011;35149;51.196;6.204;2023-03-31T01:13:59;2.50;;;0.93;;
49131;SDS011;35149;51.196;6.204;2023-03-31T01:16:26;5.45;;;1.10;;
49131;SDS011;35149;51.196;6.204;2023-03-31T01:18:56;3.92;;;1.30;;
49131;SDS011;35149;51.196;6.204;2023-03-31T01:24:13;4.50;;;1.25;;
49131;SDS011;35149;51.196;6.204;2023-03-31T01:26:55;3.90;;;1.10;;
49131;SDS011;35149;51.196;6.204;2023-03-31T01:43:32;5.22;;;2.33;;
49131;SDS011;35149;51.196;6.204;2023-03-31T01:46:07;6.05;;;1.60;;
49131;SDS011;35149;51.196;6.204;2023-03-31T01:48:46;7.43;;;1.90;;
49131;SDS011;35149;51.196;6.204;2023-03-31T01:51:43;6.70;;;2.00;;
49131;SDS011;35149;51.196;6.204;2023-03-31T01:56:40;5.50;;;1.58;;
49131;SDS011;35149;51.196;6.204;2023-03-31T01:59:13;9.18;;;2.00;;
49131;SDS011;35149;51.196;6.204;2023-03-31T02:01:50;5.05;;;2.38;;
49131;SDS011;35149;51.196;6.204;2023-03-31T02:04:21;6.78;;;2.58;;
49131;SDS011;35149;51.196;6.204;2023-03-31T02:06:55;6.85;;;2.40;;
49131;SDS011;35149;51.196;6.204;2023-03-31T02:09:28;5.70;;;2.22;;
49131;SDS011;35149;51.196;6.204;2023-03-31T02:12:06;8.57;;;1.65;;
49131;SDS011;35149;51.196;6.204;2023-03-31T02:14:36;5.28;;;2.05;;
49131;SDS011;35149;51.196;6.204;2023-03-31T02:17:14;5.30;;;1.90;;
49131;SDS011;35149;51.196;6.204;2023-03-31T02:22:13;4.68;;;1.80;;
49131;SDS011;35149;51.196;6.204;2023-03-31T02:24:44;7.57;;;1.88;;
49131;SDS011;35149;51.196;6.204;2023-03-31T02:27:18;6.65;;;2.25;;
49131;SDS011;35149;51.196;6.204;2023-03-31T02:29:48;7.32;;;2.42;;
49131;SDS011;35149;51.196;6.204;2023-03-31T02:32:23;6.90;;;2.40;;
49131;SDS011;35149;51.196;6.204;2023-03-31T02:34:57;4.55;;;1.75;;
49131;SDS011;35149;51.196;6.204;2023-03-31T02:37:27;4.78;;;1.55;;
49131;SDS011;35149;51.196;6.204;2023-03-31T02:39:55;4.78;;;1.52;;
49131;SDS011;35149;51.196;6.204;2023-03-31T02:42:24;7.25;;;1.85;;
49131;SDS011;35149;51.196;6.204;2023-03-31T02:44:50;7.75;;;2.05;;
49131;SDS011;35149;51.196;6.204;2023-03-31T02:47:22;5.47;;;1.48;;
49131;SDS011;35149;51.196;6.204;2023-03-31T02:49:59;5.18;;;1.77;;
49131;SDS011;35149;51.196;6.204;2023-03-31T02:55:44;5.85;;;2.10;;
49131;SDS011;35149;51.196;6.204;2023-03-31T03:07:02;4.82;;;1.55;;
49131;SDS011;35149;51.196;6.204;2023-03-31T03:12:33;3.75;;;1.75;;
49131;SDS011;35149;51.196;6.204;2023-03-31T03:15:29;5.50;;;1.60;;
49131;SDS011;35149;51.196;6.204;2023-03-31T03:18:04;6.25;;;1.55;;
49131;SDS011;35149;51.196;6.204;2023-03-31T03:20:31;5.15;;;1.60;;
49131;SDS011;35149;51.196;6.204;2023-03-31T03:23:01;3.88;;;1.65;;
49131;SDS011;35149;51.196;6.204;2023-03-31T03:25:28;4.10;;;1.23;;
49131;SDS011;35149;51.196;6.204;2023-03-31T03:27:55;4.38;;;2.47;;
49131;SDS011;35149;51.196;6.204;2023-03-31T03:30:21;5.68;;;1.77;;
49131;SDS011;35149;51.196;6.204;2023-03-31T03:32:48;5.30;;;1.90;;
49131;SDS011;35149;51.196;6.204;2023-03-31T03:35:17;5.32;;;1.73;;
49131;SDS011;35149;51.196;6.204;2023-03-31T03:37:44;8.15;;;2.00;;
49131;SDS011;35149;51.196;6.204;2023-03-31T03:40:11;5.90;;;1.25;;
49131;SDS011;35149;51.196;6.204;2023-03-31T03:42:38;5.03;;;1.08;;
49131;SDS011;35149;51.196;6.204;2023-03-31T03:45:07;4.60;;;1.67;;
49131;SDS011;35149;51.196;6.204;2023-03-31T03:47:37;4.35;;;1.30;;
49131;SDS011;35149;51.196;6.204;2023-03-31T03:50:04;4.13;;;1.27;;
49131;SDS011;35149;51.196;6.204;2023-03-31T03:52:31;4.85;;;1.60;;
49131;SDS011;35149;51.196;6.204;2023-03-31T03:54:58;4.53;;;1.23;;
49131;SDS011;35149;51.196;6.204;2023-03-31T03:57:28;3.90;;;1.45;;
49131;SDS011;35149;51.196;6.204;2023-03-31T03:59:55;5.47;;;1.48;;
49131;SDS011;35149;51.196;6.204;2023-03-31T04:02:21;3.03;;;1.33;;
49131;SDS011;35149;51.196;6.204;2023-03-31T04:04:54;4.63;;;1.13;;
49131;SDS011;35149;51.196;6.204;2023-03-31T04:07:29;2.63;;;1.20;;
49131;SDS011;35149;51.196;6.204;2023-03-31T04:09:55;3.65;;;1.40;;
49131;SDS011;35149;51.196;6.204;2023-03-31T04:12:22;2.80;;;1.02;;
49131;SDS011;35149;51.196;6.204;2023-03-31T04:14:51;5.50;;;1.27;;
49131;SDS011;35149;51.196;6.204;2023-03-31T04:17:22;1.52;;;0.85;;
49131;SDS011;35149;51.196;6.204;2023-03-31T04:20:04;3.70;;;1.00;;
49131;SDS011;35149;51.196;6.204;2023-03-31T04:22:34;2.95;;;1.00;;
49131;SDS011;35149;51.196;6.204;2023-03-31T04:25:06;4.13;;;0.85;;
49131;SDS011;35149;51.196;6.204;2023-03-31T04:27:43;4.05;;;0.93;;
49131;SDS011;35149;51.196;6.204;2023-03-31T04:30:21;2.53;;;0.85;;
49131;SDS011;35149;51.196;6.204;2023-03-31T04:32:49;3.50;;;1.08;;
49131;SDS011;35149;51.196;6.204;2023-03-31T04:35:18;2.45;;;0.63;;
49131;SDS011;35149;51.196;6.204;2023-03-31T04:37:46;3.05;;;0.68;;
49131;SDS011;35149;51.196;6.204;2023-03-31T04:40:14;2.13;;;0.70;;
49131;SDS011;35149;51.196;6.204;2023-03-31T04:42:42;2.05;;;0.88;;
49131;SDS011;35149;51.196;6.204;2023-03-31T04:45:09;3.80;;;1.13;;
49131;SDS011;35149;51.196;6.204;2023-03-31T04:47:37;2.63;;;0.98;;
49131;SDS011;35149;51.196;6.204;2023-03-31T04:50:04;0.98;;;0.50;;
49131;SDS011;35149;51.196;6.204;2023-03-31T04:52:31;2.55;;;0.82;;
49131;SDS011;35149;51.196;6.204;2023-03-31T04:54:58;3.38;;;0.95;;
49131;SDS011;35149;51.196;6.204;2023-03-31T04:57:24;1.65;;;0.82;;
49131;SDS011;35149;51.196;6.204;2023-03-31T04:59:51;1.50;;;1.00;;
49131;SDS011;35149;51.196;6.204;2023-03-31T05:02:18;2.28;;;0.85;;
49131;SDS011;35149;51.196;6.204;2023-03-31T05:04:50;1.48;;;0.95;;
49131;SDS011;35149;51.196;6.204;2023-03-31T05:07:17;2.65;;;0.68;;
49131;SDS011;35149;51.196;6.204;2023-03-31T05:09:44;2.33;;;1.00;;
49131;SDS011;35149;51.196;6.204;2023-03-31T05:12:11;1.95;;;1.17;;
49131;SDS011;35149;51.196;6.204;2023-03-31T05:14:40;3.15;;;0.82;;
49131;SDS011;35149;51.196;6.204;2023-03-31T05:17:07;3.67;;;0.80;;
49131;SDS011;35149;51.196;6.204;2023-03-31T05:19:34;2.65;;;1.02;;
49131;SDS011;35149;51.196;6.204;2023-03-31T05:22:00;2.03;;;0.68;;
49131;SDS011;35149;51.196;6.204;2023-03-31T05:24:27;2.10;;;0.88;;
49131;SDS011;35149;51.196;6.204;2023-03-31T05:26:55;2.50;;;0.82;;
49131;SDS011;35149;51.196;6.204;2023-03-31T05:29:23;1.92;;;0.85;;
49131;SDS011;35149;51.196;6.204;2023-03-31T05:31:50;0.98;;;0.65;;
49131;SDS011;35149;51.196;6.204;2023-03-31T05:34:19;1.63;;;0.75;;
49131;SDS011;35149;51.196;6.204;2023-03-31T05:36:46;5.47;;;0.70;;
49131;SDS011;35149;51.196;6.204;2023-03-31T05:39:18;2.17;;;0.95;;
49131;SDS011;35149;51.196;6.204;2023-03-31T05:41:45;3.53;;;1.00;;
49131;SDS011;35149;51.196;6.204;2023-03-31T05:44:12;1.83;;;0.63;;
49131;SDS011;35149;51.196;6.204;2023-03-31T05:46:38;4.85;;;0.93;;
49131;SDS011;35149;51.196;6.204;2023-03-31T05:49:06;3.55;;;1.23;;
49131;SDS011;35149;51.196;6.204;2023-03-31T05:51:33;3.08;;;0.98;;
49131;SDS011;35149;51.196;6.204;2023-03-31T05:54:00;2.33;;;0.73;;
49131;SDS011;35149;51.196;6.204;2023-03-31T05:56:26;2.28;;;0.90;;
49131;SDS011;35149;51.196;6.204;2023-03-31T05:58:53;3.08;;;1.00;;
49131;SDS011;35149;51.196;6.204;2023-03-31T06:01:24;3.15;;;0.90;;
49131;SDS011;35149;51.196;6.204;2023-03-31T06:03:51;1.80;;;0.80;;
49131;SDS011;35149;51.196;6.204;2023-03-31T06:06:18;3.13;;;0.88;;
49131;SDS011;35149;51.196;6.204;2023-03-31T06:08:46;4.15;;;0.80;;
49131;SDS011;35149;51.196;6.204;2023-03-31T06:11:15;3.15;;;0.70;;
49131;SDS011;35149;51.196;6.204;2023-03-31T06:13:44;1.52;;;0.70;;
49131;SDS011;35149;51.196;6.204;2023-03-31T06:16:12;1.40;;;0.57;;
49131;SDS011;35149;51.196;6.204;2023-03-31T06:18:40;4.25;;;1.05;;
49131;SDS011;35149;51.196;6.204;2023-03-31T06:21:10;1.30;;;0.93;;
49131;SDS011;35149;51.196;6.204;2023-03-31T06:23:38;2.90;;;0.50;;
49131;SDS011;35149;51.196;6.204;2023-03-31T06:26:06;0.75;;;0.57;;
49131;SDS011;35149;51.196;6.204;2023-03-31T06:28:34;2.50;;;1.10;;
49131;SDS011;35149;51.196;6.204;2023-03-31T06:31:02;1.95;;;0.60;;
49131;SDS011;35149;51.196;6.204;2023-03-31T06:33:31;3.13;;;0.60;;
49131;SDS011;35149;51.196;6.204;2023-03-31T06:35:59;1.85;;;0.70;;
49131;SDS011;35149;51.196;6.204;2023-03-31T06:38:31;2.70;;;0.63;;
49131;SDS011;35149;51.196;6.204;2023-03-31T06:40:58;1.85;;;0.75;;
49131;SDS011;35149;51.196;6.204;2023-03-31T06:43:25;1.98;;;0.70;;
49131;SDS011;35149;51.196;6.204;2023-03-31T06:45:54;3.35;;;0.73;;
49131;SDS011;35149;51.196;6.204;2023-03-31T06:48:21;1.70;;;0.60;;
49131;SDS011;35149;51.196;6.204;2023-03-31T06:50:48;0.98;;;0.60;;
49131;SDS011;35149;51.196;6.204;2023-03-31T06:53:18;2.92;;;0.93;;
49131;SDS011;35149;51.196;6.204;2023-03-31T06:55:44;1.60;;;0.63;;
49131;SDS011;35149;51.196;6.204;2023-03-31T06:58:11;2.60;;;0.90;;
49131;SDS011;35149;51.196;6.204;2023-03-31T07:00:40;1.35;;;1.25;;
49131;SDS011;35149;51.196;6.204;2023-03-31T07:03:09;6.18;;;1.33;;
49131;SDS011;35149;51.196;6.204;2023-03-31T07:05:37;1.17;;;0.80;;
49131;SDS011;35149;51.196;6.204;2023-03-31T07:08:06;2.35;;;0.95;;
49131;SDS011;35149;51.196;6.204;2023-03-31T07:10:33;3.22;;;1.20;;
49131;SDS011;35149;51.196;6.204;2023-03-31T07:13:02;2.10;;;0.90;;
49131;SDS011;35149;51.196;6.204;2023-03-31T07:15:31;2.60;;;1.25;;
49131;SDS011;35149;51.196;6.204;2023-03-31T07:17:57;3.60;;;1.20;;
49131;SDS011;35149;51.196;6.204;2023-03-31T07:20:27;4.97;;;1.15;;
49131;SDS011;35149;51.196;6.204;2023-03-31T07:22:55;5.15;;;1.75;;
49131;SDS011;35149;51.196;6.204;2023-03-31T07:25:22;3.17;;;1.25;;
49131;SDS011;35149;51.196;6.204;2023-03-31T07:27:49;2.58;;;1.00;;
49131;SDS011;35149;51.196;6.204;2023-03-31T07:30:16;2.42;;;0.93;;
49131;SDS011;35149;51.196;6.204;2023-03-31T07:32:45;4.10;;;1.60;;
49131;SDS011;35149;51.196;6.204;2023-03-31T07:35:13;4.65;;;1.17;;
49131;SDS011;35149;51.196;6.204;2023-03-31T07:37:42;7.22;;;1.85;;
49131;SDS011;35149;51.196;6.204;2023-03-31T07:40:17;4.32;;;1.40;;
49131;SDS011;35149;51.196;6.204;2023-03-31T07:42:46;4.20;;;1.27;;
49131;SDS011;35149;51.196;6.204;2023-03-31T07:45:15;4.03;;;1.73;;
49131;SDS011;35149;51.196;6.204;2023-03-31T07:47:42;4.82;;;1.67;;
49131;SDS011;35149;51.196;6.204;2023-03-31T07:50:12;5.70;;;2.00;;
49131;SDS011;35149;51.196;6.204;2023-03-31T07:52:40;4.40;;;1.13;;
49131;SDS011;35149;51.196;6.204;2023-03-31T07:55:10;4.10;;;2.20;;
49131;SDS011;35149;51.196;6.204;2023-03-31T07:57:37;8.38;;;1.92;;
49131;SDS011;35149;51.196;6.204;2023-03-31T08:00:07;6.28;;;2.13;;
49131;SDS011;35149;51.196;6.204;2023-03-31T08:02:38;3.63;;;1.35;;
49131;SDS011;35149;51.196;6.204;2023-03-31T08:05:08;4.10;;;1.42;;
49131;SDS011;35149;51.196;6.204;2023-03-31T08:07:37;2.70;;;1.50;;
49131;SDS011;35149;51.196;6.204;2023-03-31T08:10:06;4.28;;;1.67;;
49131;SDS011;35149;51.196;6.204;2023-03-31T08:12:34;3.92;;;2.25;;
49131;SDS011;35149;51.196;6.204;2023-03-31T08:15:01;7.55;;;1.48;;
49131;SDS011;35149;51.196;6.204;2023-03-31T08:17:29;4.30;;;1.70;;
49131;SDS011;35149;51.196;6.204;2023-03-31T08:19:56;6.30;;;1.42;;
49131;SDS011;35149;51.196;6.204;2023-03-31T08:22:26;6.28;;;1.77;;
49131;SDS011;35149;51.196;6.204;2023-03-31T08:24:53;4.65;;;1.65;;
49131;SDS011;35149;51.196;6.204;2023-03-31T08:27:23;7.45;;;1.30;;
49131;SDS011;35149;51.196;6.204;2023-03-31T08:29:52;4.53;;;1.67;;
49131;SDS011;35149;51.196;6.204;2023-03-31T08:32:22;5.93;;;1.40;;
49131;SDS011;35149;51.196;6.204;2023-03-31T08:34:54;5.00;;;1.40;;
49131;SDS011;35149;51.196;6.204;2023-03-31T08:37:21;7.70;;;2.42;;
49131;SDS011;35149;51.196;6.204;2023-03-31T08:39:48;5.60;;;1.83;;
49131;SDS011;35149;51.196;6.204;2023-03-31T08:42:15;5.85;;;1.52;;
49131;SDS011;35149;51.196;6.204;2023-03-31T08:44:59;6.55;;;2.33;;
49131;SDS011;35149;51.196;6.204;2023-03-31T08:47:28;6.45;;;2.15;;
49131;SDS011;35149;51.196;6.204;2023-03-31T08:50:02;5.90;;;2.05;;
49131;SDS011;35149;51.196;6.204;2023-03-31T08:55:02;7.45;;;2.08;;
49131;SDS011;35149;51.196;6.204;2023-03-31T09:00:15;6.93;;;2.85;;
49131;SDS011;35149;51.196;6.204;2023-03-31T09:05:43;5.78;;;1.95;;
49131;SDS011;35149;51.196;6.204;2023-03-31T09:08:32;6.38;;;2.13;;
49131;SDS011;35149;51.196;6.204;2023-03-31T09:14:06;6.95;;;2.25;;
49131;SDS011;35149;51.196;6.204;2023-03-31T09:16:51;8.18;;;2.50;;
49131;SDS011;35149;51.196;6.204;2023-03-31T09:22:01;7.28;;;2.33;;
49131;SDS011;35149;51.196;6.204;2023-03-31T09:24:30;10.25;;;2.55;;
49131;SDS011;35149;51.196;6.204;2023-03-31T09:27:11;5.38;;;2.38;;
49131;SDS011;35149;51.196;6.204;2023-03-31T09:30:00;6.03;;;2.28;;
49131;SDS011;35149;51.196;6.204;2023-03-31T09:32:36;9.95;;;1.85;;
49131;SDS011;35149;51.196;6.204;2023-03-31T09:37:44;8.20;;;2.75;;
49131;SDS011;35149;51.196;6.204;2023-03-31T09:40:14;9.50;;;2.28;;
49131;SDS011;35149;51.196;6.204;2023-03-31T09:42:43;8.00;;;2.83;;
49131;SDS011;35149;51.196;6.204;2023-03-31T09:45:17;7.20;;;1.98;;
49131;SDS011;35149;51.196;6.204;2023-03-31T09:47:46;8.80;;;2.00;;
49131;SDS011;35149;51.196;6.204;2023-03-31T09:50:17;8.90;;;3.28;;
49131;SDS011;35149;51.196;6.204;2023-03-31T09:52:54;8.65;;;2.45;;
49131;SDS011;35149;51.196;6.204;2023-03-31T09:55:25;10.35;;;3.08;;
49131;SDS011;35149;51.196;6.204;2023-03-31T09:58:11;8.48;;;2.28;;
49131;SDS011;35149;51.196;6.204;2023-03-31T10:00:42;8.15;;;2.13;;
49131;SDS011;35149;51.196;6.204;2023-03-31T10:03:23;5.57;;;1.80;;
49131;SDS011;35149;51.196;6.204;2023-03-31T10:05:51;9.10;;;2.05;;
49131;SDS011;35149;51.196;6.204;2023-03-31T10:08:33;5.80;;;1.92;;
49131;SDS011;35149;51.196;6.204;2023-03-31T10:13:47;4.38;;;1.23;;
49131;SDS011;35149;51.196;6.204;2023-03-31T10:16:29;6.63;;;2.10;;
49131;SDS011;35149;51.196;6.204;2023-03-31T10:19:11;9.82;;;2.15;;
49131;SDS011;35149;51.196;6.204;2023-03-31T10:21:54;6.18;;;3.17;;
49131;SDS011;35149;51.196;6.204;2023-03-31T10:24:23;3.83;;;1.52;;
49131;SDS011;35149;51.196;6.204;2023-03-31T10:26:53;5.10;;;1.65;;
49131;SDS011;35149;51.196;6.204;2023-03-31T10:29:25;5.70;;;1.20;;
49131;SDS011;35149;51.196;6.204;2023-03-31T10:32:14;2.13;;;0.95;;
49131;SDS011;35149;51.196;6.204;2023-03-31T10:34:48;6.07;;;1.60;;
49131;SDS011;35149;51.196;6.204;2023-03-31T10:37:17;3.72;;;1.30;;
49131;SDS011;35149;51.196;6.204;2023-03-31T10:39:47;2.50;;;1.02;;
49131;SDS011;35149;51.196;6.204;2023-03-31T10:42:24;3.15;;;1.00;;
49131;SDS011;35149;51.196;6.204;2023-03-31T10:48:03;4.18;;;1.65;;
49131;SDS011;35149;51.196;6.204;2023-03-31T10:50:33;3.97;;;1.35;;
49131;SDS011;35149;51.196;6.204;2023-03-31T10:53:05;3.60;;;1.13;;
49131;SDS011;35149;51.196;6.204;2023-03-31T11:01:27;3.40;;;1.15;;
49131;SDS011;35149;51.196;6.204;2023-03-31T11:09:48;3.28;;;1.02;;
49131;SDS011;35149;51.196;6.204;2023-03-31T11:12:37;2.30;;;1.30;;
49131;SDS011;35149;51.196;6.204;2023-03-31T11:15:30;6.88;;;1.40;;
49131;SDS011;35149;51.196;6.204;2023-03-31T11:18:16;5.50;;;1.92;;
49131;SDS011;35149;51.196;6.204;2023-03-31T11:23:51;2.83;;;1.10;;
49131;SDS011;35149;51.196;6.204;2023-03-31T11:34:59;3.08;;;1.30;;
49131;SDS011;35149;51.196;6.204;2023-03-31T11:37:41;4.18;;;1.48;;
49131;SDS011;35149;51.196;6.204;2023-03-31T11:43:09;3.42;;;1.27;;
49131;SDS011;35149;51.196;6.204;2023-03-31T11:45:40;6.88;;;1.63;;
49131;SDS011;35149;51.196;6.204;2023-03-31T11:48:18;5.78;;;1.88;;
49131;SDS011;35149;51.196;6.204;2023-03-31T11:51:02;4.85;;;1.38;;
49131;SDS011;35149;51.196;6.204;2023-03-31T11:53:35;6.90;;;1.92;;
49131;SDS011;35149;51.196;6.204;2023-03-31T11:56:03;7.25;;;1.88;;
49131;SDS011;35149;51.196;6.204;2023-03-31T11:58:41;6.00;;;1.95;;
49131;SDS011;35149;51.196;6.204;2023-03-31T12:01:16;7.55;;;1.98;;
49131;SDS011;35149;51.196;6.204;2023-03-31T12:06:28;5.90;;;2.05;;
49131;SDS011;35149;51.196;6.204;2023-03-31T12:09:16;5.35;;;1.95;;
49131;SDS011;35149;51.196;6.204;2023-03-31T12:11:53;7.15;;;2.20;;
49131;SDS011;35149;51.196;6.204;2023-03-31T12:14:29;6.38;;;1.90;;
49131;SDS011;35149;51.196;6.204;2023-03-31T12:17:12;5.50;;;2.03;;
49131;SDS011;35149;51.196;6.204;2023-03-31T12:19:54;8.50;;;1.67;;
49131;SDS011;35149;51.196;6.204;2023-03-31T12:22:25;6.38;;;1.52;;
49131;SDS011;35149;51.196;6.204;2023-03-31T12:25:01;3.15;;;1.10;;
49131;SDS011;35149;51.196;6.204;2023-03-31T12:27:29;7.45;;;2.35;;
49131;SDS011;35149;51.196;6.204;2023-03-31T12:30:06;5.95;;;1.48;;
49131;SDS011;35149;51.196;6.204;2023-03-31T12:32:56;5.15;;;1.45;;
49131;SDS011;35149;51.196;6.204;2023-03-31T12:38:23;3.20;;;1.60;;
49131;SDS011;35149;51.196;6.204;2023-03-31T12:41:24;6.18;;;1.85;;
49131;SDS011;35149;51.196;6.204;2023-03-31T12:47:00;3.92;;;1.02;;
49131;SDS011;35149;51.196;6.204;2023-03-31T13:04:07;4.10;;;1.52;;
49131;SDS011;35149;51.196;6.204;2023-03-31T13:06:49;4.10;;;1.13;;
49131;SDS011;35149;51.196;6.204;2023-03-31T13:09:37;3.90;;;0.97;;
49131;SDS011;35149;51.196;6.204;2023-03-31T13:12:06;4.97;;;1.30;;
49131;SDS011;35149;51.196;6.204;2023-03-31T13:14:37;5.13;;;1.15;;
49131;SDS011;35149;51.196;6.204;2023-03-31T13:17:19;5.82;;;1.38;;
49131;SDS011;35149;51.196;6.204;2023-03-31T13:19:51;5.10;;;1.05;;
49131;SDS011;35149;51.196;6.204;2023-03-31T13:22:29;1.92;;;1.40;;
49131;SDS011;35149;51.196;6.204;2023-03-31T13:27:58;5.00;;;1.23;;
49131;SDS011;35149;51.196;6.204;2023-03-31T13:33:08;3.45;;;0.93;;
49131;SDS011;35149;51.196;6.204;2023-03-31T13:35:37;5.60;;;1.75;;
49131;SDS011;35149;51.196;6.204;2023-03-31T13:38:22;3.80;;;0.98;;
49131;SDS011;35149;51.196;6.204;2023-03-31T13:41:29;3.25;;;1.05;;
49131;SDS011;35149;51.196;6.204;2023-03-31T13:44:09;6.50;;;1.15;;
49131;SDS011;35149;51.196;6.204;2023-03-31T13:47:30;4.05;;;1.30;;
49131;SDS011;35149;51.196;6.204;2023-03-31T13:51:05;2.20;;;1.05;;
49131;SDS011;35149;51.196;6.204;2023-03-31T13:55:53;3.53;;;1.25;;
49131;SDS011;35149;51.196;6.204;2023-03-31T14:01:29;6.00;;;1.67;;
49131;SDS011;35149;51.196;6.204;2023-03-31T14:04:28;3.90;;;1.10;;
49131;SDS011;35149;51.196;6.204;2023-03-31T14:07:43;5.63;;;1.25;;
49131;SDS011;35149;51.196;6.204;2023-03-31T14:13:04;4.85;;;1.50;;
49131;SDS011;35149;51.196;6.204;2023-03-31T14:15:35;4.72;;;1.10;;
49131;SDS011;35149;51.196;6.204;2023-03-31T14:18:09;4.95;;;1.10;;
49131;SDS011;35149;51.196;6.204;2023-03-31T14:20:47;6.10;;;1.40;;
49131;SDS011;35149;51.196;6.204;2023-03-31T14:23:37;5.53;;;1.73;;
49131;SDS011;35149;51.196;6.204;2023-03-31T14:26:34;5.28;;;1.30;;
49131;SDS011;35149;51.196;6.204;2023-03-31T14:35:01;4.93;;;1.35;;
49131;SDS011;35149;51.196;6.204;2023-03-31T14:37:38;4.40;;;1.00;;
49131;SDS011;35149;51.196;6.204;2023-03-31T14:40:05;4.82;;;1.42;;
49131;SDS011;35149;51.196;6.204;2023-03-31T14:42:42;2.65;;;1.00;;
49131;SDS011;35149;51.196;6.204;2023-03-31T14:45:20;5.10;;;1.17;;
49131;SDS011;35149;51.196;6.204;2023-03-31T14:47:56;4.43;;;1.90;;
49131;SDS011;35149;51.196;6.204;2023-03-31T14:50:29;4.20;;;1.63;;
49131;SDS011;35149;51.196;6.204;2023-03-31T14:52:59;3.97;;;1.25;;
49131;SDS011;35149;51.196;6.204;2023-03-31T14:55:30;5.00;;;1.75;;
49131;SDS011;35149;51.196;6.204;2023-03-31T14:58:23;3.42;;;1.77;;
49131;SDS011;35149;51.196;6.204;2023-03-31T15:00:55;3.58;;;1.20;;
49131;SDS011;35149;51.196;6.204;2023-03-31T15:03:22;3.97;;;0.80;;
49131;SDS011;35149;51.196;6.204;2023-03-31T15:05:54;3.80;;;0.82;;
49131;SDS011;35149;51.196;6.204;2023-03-31T15:08:24;2.55;;;0.70;;
49131;SDS011;35149;51.196;6.204;2023-03-31T15:10:54;3.47;;;0.57;;
49131;SDS011;35149;51.196;6.204;2023-03-31T15:13:54;2.78;;;0.77;;
49131;SDS011;35149;51.196;6.204;2023-03-31T15:16:33;3.60;;;1.15;;
49131;SDS011;35149;51.196;6.204;2023-03-31T15:19:04;4.22;;;1.20;;
49131;SDS011;35149;51.196;6.204;2023-03-31T15:21:36;3.50;;;1.00;;
49131;SDS011;35149;51.196;6.204;2023-03-31T15:24:03;1.05;;;0.60;;
49131;SDS011;35149;51.196;6.204;2023-03-31T15:26:32;2.78;;;0.93;;
49131;SDS011;35149;51.196;6.204;2023-03-31T15:29:12;2.53;;;0.85;;
49131;SDS011;35149;51.196;6.204;2023-03-31T15:31:46;1.55;;;0.50;;
49131;SDS011;35149;51.196;6.204;2023-03-31T15:34:26;1.42;;;0.73;;
49131;SDS011;35149;51.196;6.204;2023-03-31T15:36:58;2.03;;;0.82;;
49131;SDS011;35149;51.196;6.204;2023-03-31T15:39:27;1.85;;;0.65;;
49131;SDS011;35149;51.196;6.204;2023-03-31T15:41:57;2.42;;;0.70;;
49131;SDS011;35149;51.196;6.204;2023-03-31T15:44:29;1.48;;;0.60;;
49131;SDS011;35149;51.196;6.204;2023-03-31T15:47:14;2.20;;;0.57;;
49131;SDS011;35149;51.196;6.204;2023-03-31T15:49:46;1.67;;;0.60;;
49131;SDS011;35149;51.196;6.204;2023-03-31T15:54:58;1.92;;;0.75;;
49131;SDS011;35149;51.196;6.204;2023-03-31T15:57:30;2.00;;;0.40;;
49131;SDS011;35149;51.196;6.204;2023-03-31T16:00:02;2.63;;;0.80;;
49131;SDS011;35149;51.196;6.204;2023-03-31T16:02:41;3.10;;;0.52;;
49131;SDS011;35149;51.196;6.204;2023-03-31T16:07:52;0.88;;;0.68;;
49131;SDS011;35149;51.196;6.204;2023-03-31T16:10:20;2.10;;;0.52;;
49131;SDS011;35149;51.196;6.204;2023-03-31T16:13:21;4.10;;;0.60;;
49131;SDS011;35149;51.196;6.204;2023-03-31T16:15:48;2.10;;;0.52;;
49131;SDS011;35149;51.196;6.204;2023-03-31T16:18:38;2.28;;;0.93;;
49131;SDS011;35149;51.196;6.204;2023-03-31T16:21:08;1.45;;;0.50;;
49131;SDS011;35149;51.196;6.204;2023-03-31T16:23:38;1.42;;;0.50;;
49131;SDS011;35149;51.196;6.204;2023-03-31T16:26:08;2.90;;;0.88;;
49131;SDS011;35149;51.196;6.204;2023-03-31T16:28:37;3.58;;;0.93;;
49131;SDS011;35149;51.196;6.204;2023-03-31T16:31:04;3.15;;;1.08;;
49131;SDS011;35149;51.196;6.204;2023-03-31T16:33:52;1.65;;;0.60;;
49131;SDS011;35149;51.196;6.204;2023-03-31T16:36:20;3.70;;;1.08;;
49131;SDS011;35149;51.196;6.204;2023-03-31T16:38:53;2.10;;;0.60;;
49131;SDS011;35149;51.196;6.204;2023-03-31T16:41:22;1.98;;;0.95;;
49131;SDS011;35149;51.196;6.204;2023-03-31T16:43:49;1.77;;;1.17;;
49131;SDS011;35149;51.196;6.204;2023-03-31T16:46:20;1.85;;;0.70;;
49131;SDS011;35149;51.196;6.204;2023-03-31T16:48:47;4.95;;;1.50;;
49131;SDS011;35149;51.196;6.204;2023-03-31T16:51:14;1.58;;;0.60;;
49131;SDS011;35149;51.196;6.204;2023-03-31T16:53:42;1.38;;;0.80;;
49131;SDS011;35149;51.196;6.204;2023-03-31T16:56:09;1.25;;;0.70;;
49131;SDS011;35149;51.196;6.204;2023-03-31T16:58:39;1.58;;;0.82;;
49131;SDS011;35149;51.196;6.204;2023-03-31T17:01:06;2.88;;;0.68;;
49131;SDS011;35149;51.196;6.204;2023-03-31T17:03:34;1.95;;;0.60;;
49131;SDS011;35149;51.196;6.204;2023-03-31T17:06:11;0.60;;;0.40;;
49131;SDS011;35149;51.196;6.204;2023-03-31T17:08:38;1.08;;;0.43;;
49131;SDS011;35149;51.196;6.204;2023-03-31T17:11:09;1.92;;;0.38;;
49131;SDS011;35149;51.196;6.204;2023-03-31T17:13:37;1.50;;;0.88;;
49131;SDS011;35149;51.196;6.204;2023-03-31T17:16:05;3.40;;;0.93;;
49131;SDS011;35149;51.196;6.204;2023-03-31T17:18:49;1.92;;;0.70;;
49131;SDS011;35149;51.196;6.204;2023-03-31T17:21:18;1.27;;;0.70;;
49131;SDS011;35149;51.196;6.204;2023-03-31T17:23:45;2.53;;;1.08;;
49131;SDS011;35149;51.196;6.204;2023-03-31T17:26:12;1.73;;;1.00;;
49131;SDS011;35149;51.196;6.204;2023-03-31T17:28:40;1.30;;;0.80;;
49131;SDS011;35149;51.196;6.204;2023-03-31T17:31:13;1.55;;;1.27;;
49131;SDS011;35149;51.196;6.204;2023-03-31T17:33:48;2.08;;;0.90;;
49131;SDS011;35149;51.196;6.204;2023-03-31T17:36:15;2.13;;;1.00;;